Time;durP1;ratioP1;P1;durP2;ratioP2;P2;SDS_P1;SDS_P2;PMS_P1;PMS_P2;Temp;Humidity;BMP_temperature;BMP_pressure;BME280_temperature;BME280_humidity;BME280_pressure;Samples;Min_cycle;Max_cycle;Signal;HPM_P1;HPM_P2
2023/04/23 00:00:35;;;;;;;16.40;7.40;;;;;;;;;;110509;1276;22424;-76
2023/04/23 00:03:25;;;;;;;16.50;6.50;;;;;;;;;;110483;1254;22144;-77
2023/04/23 00:05:54;;;;;;;18.00;7.40;;;;;;;;;;110402;1276;22113;-77
2023/04/23 00:08:21;;;;;;;15.20;7.00;;;;;;;;;;110495;1275;22112;-77
2023/04/23 00:10:48;;;;;;;13.10;7.00;;;;;;;;;;110419;1276;22185;-77
2023/04/23 00:13:15;;;;;;;12.50;6.00;;;;;;;;;;110308;1276;22355;-77
2023/04/23 00:15:42;;;;;;;13.40;6.40;;;;;;;;;;110453;1263;22110;-86
2023/04/23 00:18:08;;;;;;;11.80;5.80;;;;;;;;;;110640;1275;22364;-77
2023/04/23 00:20:35;;;;;;;15.20;6.20;;;;;;;;;;110471;1276;22532;-77
2023/04/23 00:23:02;;;;;;;14.60;6.20;;;;;;;;;;110651;1275;22807;-77
2023/04/23 00:25:29;;;;;;;13.40;6.60;;;;;;;;;;110870;1260;22166;-77
2023/04/23 00:27:56;;;;;;;13.30;6.10;;;;;;;;;;110487;1276;22111;-77
2023/04/23 00:30:23;;;;;;;14.80;6.60;;;;;;;;;;110653;1275;22294;-76
2023/04/23 00:32:50;;;;;;;18.00;6.60;;;;;;;;;;110571;1276;22110;-76
2023/04/23 00:35:19;;;;;;;14.80;6.70;;;;;;;;;;110624;1269;22192;-76
2023/04/23 00:37:46;;;;;;;15.50;7.00;;;;;;;;;;110590;1276;22184;-77
2023/04/23 00:40:13;;;;;;;14.10;6.60;;;;;;;;;;110490;1276;22146;-77
2023/04/23 00:42:40;;;;;;;14.90;7.30;;;;;;;;;;110461;1276;22105;-77
2023/04/23 00:45:08;;;;;;;13.60;7.60;;;;;;;;;;110568;1269;22134;-77
2023/04/23 00:47:35;;;;;;;15.40;7.40;;;;;;;;;;110373;1276;22180;-77
2023/04/23 00:50:02;;;;;;;16.20;7.40;;;;;;;;;;110379;1276;22171;-77
2023/04/23 00:52:30;;;;;;;16.20;7.80;;;;;;;;;;110296;1272;22152;-77
2023/04/23 00:54:58;;;;;;;15.40;7.80;;;;;;;;;;110395;1260;22187;-77
2023/04/23 00:57:25;;;;;;;14.80;6.80;;;;;;;;;;110481;1276;22173;-77
2023/04/23 00:59:55;;;;;;;15.00;7.20;;;;;;;;;;110436;1276;22206;-77
2023/04/23 01:02:23;;;;;;;12.30;5.80;;;;;;;;;;110472;1275;22107;-77
2023/04/23 01:04:50;;;;;;;11.70;5.80;;;;;;;;;;110462;1259;22122;-77
2023/04/23 01:07:17;;;;;;;12.20;6.20;;;;;;;;;;110349;1276;22287;-77
2023/04/23 01:09:44;;;;;;;14.40;6.20;;;;;;;;;;110571;1276;22204;-77
2023/04/23 01:12:12;;;;;;;12.90;5.90;;;;;;;;;;110310;1276;22305;-77
2023/04/23 01:14:40;;;;;;;12.90;5.60;;;;;;;;;;110290;1253;22124;-77
2023/04/23 01:17:07;;;;;;;12.80;6.10;;;;;;;;;;110342;1276;22907;-77
2023/04/23 01:19:35;;;;;;;12.70;6.20;;;;;;;;;;110351;1276;22117;-77
2023/04/23 01:22:02;;;;;;;14.30;5.70;;;;;;;;;;110370;1276;22137;-76
2023/04/23 01:24:30;;;;;;;13.90;5.80;;;;;;;;;;110318;1268;22094;-77
2023/04/23 01:26:57;;;;;;;13.80;6.30;;;;;;;;;;110361;1260;22152;-77
2023/04/23 01:29:27;;;;;;;12.70;6.60;;;;;;;;;;110384;1276;22372;-77
2023/04/23 01:31:54;;;;;;;14.20;5.90;;;;;;;;;;110512;1277;22144;-76
2023/04/23 01:34:23;;;;;;;16.20;7.80;;;;;;;;;;110462;1277;22069;-76
2023/04/23 01:36:51;;;;;;;16.30;7.50;;;;;;;;;;110719;1257;22430;-77
2023/04/23 01:39:18;;;;;;;14.50;7.70;;;;;;;;;;110294;1275;22111;-77
2023/04/23 01:41:47;;;;;;;16.60;8.10;;;;;;;;;;110447;1277;22297;-77
2023/04/23 01:44:15;;;;;;;18.30;8.50;;;;;;;;;;110438;1277;22152;-77
2023/04/23 01:46:43;;;;;;;16.90;8.30;;;;;;;;;;110700;1256;22165;-76
2023/04/23 01:49:10;;;;;;;17.70;8.90;;;;;;;;;;110309;1277;22114;-76
2023/04/23 01:51:38;;;;;;;17.10;9.30;;;;;;;;;;110189;1278;22242;-77
2023/04/23 01:54:05;;;;;;;19.50;9.10;;;;;;;;;;110456;1273;22503;-77
2023/04/23 01:56:34;;;;;;;19.10;9.10;;;;;;;;;;110562;1259;22132;-77
2023/04/23 01:59:02;;;;;;;15.80;7.40;;;;;;;;;;110457;1277;22069;-77
2023/04/23 02:01:46;;;;;;;17.90;7.00;;;;;;;;;;110474;1277;22099;-77
2023/04/23 02:04:13;;;;;;;16.60;7.90;;;;;;;;;;110200;1277;22100;-77
2023/04/23 02:06:41;;;;;;;17.70;7.40;;;;;;;;;;110409;1260;22332;-77
2023/04/23 02:09:09;;;;;;;15.10;7.70;;;;;;;;;;110263;1277;22127;-76
2023/04/23 02:11:36;;;;;;;16.60;7.40;;;;;;;;;;110452;1277;22265;-78
2023/04/23 02:14:04;;;;;;;16.70;7.60;;;;;;;;;;110270;1277;22890;-77
2023/04/23 02:16:33;;;;;;;17.10;6.90;;;;;;;;;;110581;1257;22130;-77
2023/04/23 02:19:01;;;;;;;14.50;6.70;;;;;;;;;;110458;1274;22104;-77
2023/04/23 02:21:28;;;;;;;13.10;6.20;;;;;;;;;;110178;1277;22652;-77
2023/04/23 02:23:56;;;;;;;12.80;6.80;;;;;;;;;;110442;1277;22108;-77
2023/04/23 02:26:24;;;;;;;17.40;7.70;;;;;;;;;;110496;1258;22109;-77
2023/04/23 02:28:51;;;;;;;14.90;7.90;;;;;;;;;;110227;1277;22162;-76
2023/04/23 02:31:21;;;;;;;17.20;8.00;;;;;;;;;;110258;1278;22243;-76
2023/04/23 02:33:50;;;;;;;18.00;8.30;;;;;;;;;;110261;1279;22132;-77
2023/04/23 02:36:19;;;;;;;15.90;7.90;;;;;;;;;;110207;1256;22179;-77
2023/04/23 02:38:50;;;;;;;15.90;7.90;;;;;;;;;;110169;1279;22200;-77
2023/04/23 02:41:20;;;;;;;17.10;7.80;;;;;;;;;;110333;1278;22744;-77
2023/04/23 02:43:49;;;;;;;19.80;8.60;;;;;;;;;;110172;1278;22039;-77
2023/04/23 02:46:18;;;;;;;17.20;8.90;;;;;;;;;;110169;1278;22636;-77
2023/04/23 02:48:48;;;;;;;15.90;7.60;;;;;;;;;;110253;1261;22099;-77
2023/04/23 02:51:18;;;;;;;15.70;7.60;;;;;;;;;;110085;1278;22114;-76
2023/04/23 02:53:48;;;;;;;16.70;7.80;;;;;;;;;;110140;1278;22141;-76
2023/04/23 02:56:17;;;;;;;16.00;7.90;;;;;;;;;;110089;1273;22098;-76
2023/04/23 02:58:46;;;;;;;15.30;7.60;;;;;;;;;;110492;1261;22209;-77
2023/04/23 03:01:15;;;;;;;15.40;7.50;;;;;;;;;;110247;1279;22093;-76
2023/04/23 03:03:44;;;;;;;20.40;7.40;;;;;;;;;;110297;1278;22253;-77
2023/04/23 03:06:15;;;;;;;15.30;6.30;;;;;;;;;;110276;1278;22181;-76
2023/04/23 03:08:43;;;;;;;14.40;6.70;;;;;;;;;;110565;1260;22101;-77
2023/04/23 03:11:13;;;;;;;14.60;6.90;;;;;;;;;;110263;1278;22092;-77
2023/04/23 03:13:43;;;;;;;12.10;6.10;;;;;;;;;;110160;1278;22124;-77
2023/04/23 03:16:12;;;;;;;11.80;6.00;;;;;;;;;;110296;1278;22180;-77
2023/04/23 03:18:42;;;;;;;11.50;5.50;;;;;;;;;;110485;1260;22212;-77
2023/04/23 03:21:11;;;;;;;12.90;5.40;;;;;;;;;;110301;1278;22167;-77
2023/04/23 03:23:40;;;;;;;12.30;5.80;;;;;;;;;;110328;1278;22161;-77
2023/04/23 03:26:10;;;;;;;14.80;5.70;;;;;;;;;;110262;1275;22119;-77
2023/04/23 03:28:40;;;;;;;11.50;5.70;;;;;;;;;;110288;1263;22101;-77
2023/04/23 03:40:55;;;;;;;12.70;5.60;;;;;;;;;;103899;1311;549262;-82
2023/04/23 03:43:22;;;;;;;13.00;5.00;;;;;;;;;;106401;1282;24347;-85
2023/04/23 03:46:11;;;;;;;12.80;4.80;;;;;;;;;;106128;1285;25343;-80
2023/04/23 03:48:39;;;;;;;11.90;4.40;;;;;;;;;;106385;1285;24240;-81
2023/04/23 03:51:09;;;;;;;11.30;5.20;;;;;;;;;;106773;1262;22540;-79
2023/04/23 03:53:39;;;;;;;11.90;5.10;;;;;;;;;;104897;1276;2630763;-78
2023/04/23 03:56:44;;;;;;;13.60;4.80;;;;;;;;;;106660;1280;22669;-82
2023/04/23 03:59:10;;;;;;;12.50;5.40;;;;;;;;;;106649;1280;24203;-83
2023/04/23 04:01:37;;;;;;;12.70;5.20;;;;;;;;;;106734;1260;22640;-81
2023/04/23 04:04:03;;;;;;;14.00;5.10;;;;;;;;;;106827;1277;25318;-82
2023/04/23 04:06:31;;;;;;;13.30;5.10;;;;;;;;;;106516;1279;24318;-82
2023/04/23 04:08:57;;;;;;;13.10;4.90;;;;;;;;;;106784;1278;22542;-84
2023/04/23 04:11:24;;;;;;;16.00;5.10;;;;;;;;;;106518;1272;22543;-85
2023/04/23 04:13:50;;;;;;;11.90;5.20;;;;;;;;;;106761;1280;22547;-80
2023/04/23 04:16:16;;;;;;;14.40;5.60;;;;;;;;;;106422;1280;22544;-79
2023/04/23 04:18:44;;;;;;;12.00;5.50;;;;;;;;;;106534;1280;24418;-81
2023/04/23 04:21:11;;;;;;;13.90;5.10;;;;;;;;;;106746;1260;22765;-82
2023/04/23 04:23:37;;;;;;;15.10;5.70;;;;;;;;;;106784;1276;22557;-83
2023/04/23 04:26:03;;;;;;;10.50;5.00;;;;;;;;;;106790;1278;23335;-82
2023/04/23 04:28:34;;;;;;;13.50;5.80;;;;;;;;;;107079;1274;25271;-78
2023/04/23 04:31:01;;;;;;;13.90;4.60;;;;;;;;;;107031;1271;23879;-77
2023/04/23 04:33:28;;;;;;;13.10;5.10;;;;;;;;;;106888;1275;22748;-82
2023/04/23 04:35:55;;;;;;;14.40;4.50;;;;;;;;;;106843;1275;22541;-82
2023/04/23 04:38:21;;;;;;;11.30;4.80;;;;;;;;;;106815;1275;25333;-81
2023/04/23 04:40:47;;;;;;;14.80;4.70;;;;;;;;;;106831;1251;24196;-83
2023/04/23 04:43:15;;;;;;;12.10;5.20;;;;;;;;;;106999;1275;25389;-82
2023/04/23 04:45:41;;;;;;;12.10;5.00;;;;;;;;;;107225;1272;24235;-80
2023/04/23 04:48:07;;;;;;;12.40;4.80;;;;;;;;;;107203;1272;22520;-83
2023/04/23 04:50:34;;;;;;;11.70;5.10;;;;;;;;;;107164;1273;25397;-78
2023/04/23 04:53:00;;;;;;;11.70;5.10;;;;;;;;;;106915;1273;24252;-80
2023/04/23 04:55:26;;;;;;;14.00;5.20;;;;;;;;;;107074;1273;24338;-85
2023/04/23 04:57:52;;;;;;;12.00;5.00;;;;;;;;;;106964;1273;23880;-80
2023/04/23 05:00:21;;;;;;;10.20;4.80;;;;;;;;;;106927;1275;24206;-77
2023/04/23 05:02:51;;;;;;;11.10;4.50;;;;;;;;;;107175;1257;25407;-77
2023/04/23 05:05:17;;;;;;;12.20;4.70;;;;;;;;;;107131;1274;22543;-79
2023/04/23 05:16:01;;;;;;;10.90;4.50;;;;;;;;;;103864;1292;545849;-81
2023/04/23 05:18:28;;;;;;;11.80;4.40;;;;;;;;;;106292;1287;27046;-78
2023/04/23 05:20:55;;;;;;;10.30;4.40;;;;;;;;;;106021;1287;22685;-79
2023/04/23 05:23:21;;;;;;;9.90;3.80;;;;;;;;;;106304;1287;25345;-82
2023/04/23 05:25:50;;;;;;;15.10;4.30;;;;;;;;;;106063;1269;22553;-80
2023/04/23 05:28:17;;;;;;;12.10;4.90;;;;;;;;;;106345;1287;25337;-80
2023/04/23 05:30:44;;;;;;;11.00;4.60;;;;;;;;;;104230;1284;2920717;-78
2023/04/23 05:33:11;;;;;;;13.80;4.70;;;;;;;;;;106406;1285;23199;-83
2023/04/23 05:35:38;;;;;;;11.30;4.30;;;;;;;;;;106415;1263;22537;-81
2023/04/23 05:38:05;;;;;;;12.10;4.80;;;;;;;;;;106215;1285;22545;-76
2023/04/23 05:40:32;;;;;;;12.90;4.80;;;;;;;;;;106346;1285;22654;-82
2023/04/23 05:42:59;;;;;;;10.70;4.50;;;;;;;;;;106087;1285;25338;-82
2023/04/23 05:45:26;;;;;;;14.20;4.60;;;;;;;;;;106294;1263;22536;-85
2023/04/23 05:47:53;;;;;;;11.60;4.80;;;;;;;;;;106104;1285;24247;-85
2023/04/23 05:50:20;;;;;;;11.40;4.10;;;;;;;;;;106110;1285;22591;-82
2023/04/23 05:52:46;;;;;;;10.50;3.90;;;;;;;;;;106390;1285;22681;-80
2023/04/23 05:55:17;;;;;;;10.50;4.40;;;;;;;;;;106396;1285;22664;-80
2023/04/23 05:57:44;;;;;;;13.40;4.90;;;;;;;;;;106371;1285;24691;-79
2023/04/23 06:00:11;;;;;;;11.90;4.10;;;;;;;;;;106404;1285;22639;-80
2023/04/23 06:02:40;;;;;;;10.30;4.10;;;;;;;;;;106395;1285;22534;-85
2023/04/23 06:05:08;;;;;;;11.20;4.20;;;;;;;;;;110681;1274;22106;-81
2023/04/23 06:07:35;;;;;;;12.30;4.30;;;;;;;;;;110725;1256;22406;-80
2023/04/23 06:10:03;;;;;;;10.00;4.40;;;;;;;;;;110641;1274;22285;-79
2023/04/23 06:12:31;;;;;;;11.20;4.20;;;;;;;;;;110645;1274;22127;-80
2023/04/23 06:14:57;;;;;;;8.50;3.90;;;;;;;;;;110606;1274;22344;-79
2023/04/23 06:17:24;;;;;;;10.10;4.80;;;;;;;;;;110715;1256;22251;-79
2023/04/23 06:19:51;;;;;;;9.00;4.20;;;;;;;;;;110526;1274;22197;-80
2023/04/23 06:22:18;;;;;;;10.60;3.80;;;;;;;;;;110592;1274;23199;-81
2023/04/23 06:24:44;;;;;;;10.60;4.10;;;;;;;;;;110617;1272;22844;-78
2023/04/23 06:27:11;;;;;;;14.00;4.30;;;;;;;;;;110641;1256;22181;-80
2023/04/23 06:29:41;;;;;;;9.70;4.20;;;;;;;;;;110492;1275;22131;-80
2023/04/23 06:32:09;;;;;;;14.80;4.10;;;;;;;;;;110597;1275;22112;-78
2023/04/23 06:34:36;;;;;;;10.00;4.10;;;;;;;;;;110343;1275;22832;-79
2023/04/23 06:37:03;;;;;;;11.40;4.40;;;;;;;;;;110418;1258;22886;-79
2023/04/23 06:39:29;;;;;;;11.70;3.80;;;;;;;;;;110324;1275;22103;-79
2023/04/23 06:41:57;;;;;;;9.60;3.90;;;;;;;;;;110613;1275;22330;-80
2023/04/23 06:44:46;;;;;;;9.30;4.10;;;;;;;;;;110583;1262;22929;-79
2023/04/23 06:47:13;;;;;;;10.80;4.40;;;;;;;;;;110443;1259;22848;-79
2023/04/23 06:49:40;;;;;;;11.40;4.30;;;;;;;;;;110605;1275;23050;-79
2023/04/23 06:52:07;;;;;;;10.60;4.60;;;;;;;;;;110474;1275;22196;-83
2023/04/23 06:54:34;;;;;;;10.00;4.50;;;;;;;;;;110603;1275;22420;-79
2023/04/23 06:57:01;;;;;;;10.70;4.50;;;;;;;;;;110620;1253;22942;-80
2023/04/23 06:59:28;;;;;;;9.80;4.10;;;;;;;;;;110630;1275;22100;-79
2023/04/23 07:01:55;;;;;;;12.10;4.50;;;;;;;;;;110345;1263;22096;-78
2023/04/23 07:04:22;;;;;;;11.40;4.30;;;;;;;;;;110612;1272;22115;-79
2023/04/23 07:06:49;;;;;;;10.10;4.00;;;;;;;;;;110552;1275;23682;-80
2023/04/23 07:09:16;;;;;;;15.50;4.40;;;;;;;;;;110904;1259;22158;-80
2023/04/23 07:11:44;;;;;;;10.80;3.60;;;;;;;;;;110455;1275;22082;-79
2023/04/23 07:14:11;;;;;;;13.10;4.10;;;;;;;;;;110640;1269;22126;-78
2023/04/23 07:16:37;;;;;;;9.90;4.20;;;;;;;;;;110617;1275;22132;-78
2023/04/23 07:19:05;;;;;;;9.90;3.40;;;;;;;;;;110640;1259;22273;-79
2023/04/23 07:21:34;;;;;;;8.20;3.20;;;;;;;;;;110466;1275;22094;-81
2023/04/23 07:24:07;;;;;;;12.30;4.10;;;;;;;;;;110571;1275;22103;-81
2023/04/23 07:26:35;;;;;;;14.00;3.20;;;;;;;;;;110487;1275;22135;-79
2023/04/23 07:29:06;;;;;;;9.40;2.90;;;;;;;;;;110508;1260;22103;-79
2023/04/23 07:31:33;;;;;;;8.00;3.50;;;;;;;;;;110632;1275;22884;-79
2023/04/23 07:34:00;;;;;;;7.30;3.00;;;;;;;;;;110621;1276;23262;-77
2023/04/23 07:36:27;;;;;;;10.40;3.50;;;;;;;;;;110351;1276;22198;-79
2023/04/23 07:38:54;;;;;;;10.10;3.20;;;;;;;;;;110623;1254;22167;-78
2023/04/23 07:41:25;;;;;;;8.30;3.50;;;;;;;;;;110564;1276;22856;-80
2023/04/23 07:43:52;;;;;;;8.60;3.10;;;;;;;;;;110343;1276;22112;-78
2023/04/23 07:46:19;;;;;;;9.20;3.50;;;;;;;;;;110405;1276;22109;-78
2023/04/23 07:48:46;;;;;;;11.00;3.20;;;;;;;;;;110650;1259;22128;-80
2023/04/23 07:51:13;;;;;;;8.80;3.40;;;;;;;;;;110535;1269;22102;-81
2023/04/23 07:53:41;;;;;;;10.30;3.20;;;;;;;;;;110532;1263;22114;-78
2023/04/23 07:56:09;;;;;;;6.90;3.00;;;;;;;;;;110613;1275;22194;-78
2023/04/23 07:58:36;;;;;;;8.30;3.30;;;;;;;;;;110686;1256;22146;-78
2023/04/23 08:01:06;;;;;;;11.60;3.30;;;;;;;;;;110510;1276;22714;-79
2023/04/23 08:03:33;;;;;;;7.80;2.90;;;;;;;;;;110528;1276;22166;-78
2023/04/23 08:06:00;;;;;;;8.80;3.30;;;;;;;;;;110528;1276;22124;-78
2023/04/23 08:08:26;;;;;;;7.20;3.20;;;;;;;;;;110520;1254;22140;-78
2023/04/23 08:10:53;;;;;;;8.30;3.30;;;;;;;;;;110513;1276;22127;-79
2023/04/23 08:13:20;;;;;;;9.30;3.60;;;;;;;;;;110635;1276;22120;-79
2023/04/23 08:15:50;;;;;;;8.40;3.50;;;;;;;;;;110319;1276;23163;-79
2023/04/23 08:18:17;;;;;;;6.20;2.80;;;;;;;;;;110503;1265;23184;-79
2023/04/23 08:20:44;;;;;;;8.20;3.20;;;;;;;;;;110280;1260;22121;-80
2023/04/23 08:23:11;;;;;;;7.90;3.10;;;;;;;;;;110403;1276;22126;-78
2023/04/23 08:25:37;;;;;;;9.30;3.20;;;;;;;;;;110426;1276;22360;-79
2023/04/23 08:28:04;;;;;;;8.70;3.30;;;;;;;;;;110423;1276;22833;-79
2023/04/23 08:30:31;;;;;;;10.30;3.20;;;;;;;;;;110917;1257;22093;-78
2023/04/23 08:32:58;;;;;;;10.50;3.20;;;;;;;;;;110460;1276;22181;-79
2023/04/23 08:35:25;;;;;;;10.20;3.60;;;;;;;;;;110611;1276;22101;-78
2023/04/23 08:37:52;;;;;;;9.40;3.60;;;;;;;;;;110454;1276;22291;-81
2023/04/23 08:40:19;;;;;;;8.90;3.30;;;;;;;;;;110370;1262;22173;-78
2023/04/23 08:42:48;;;;;;;7.70;3.50;;;;;;;;;;110351;1276;21986;-79
2023/04/23 08:45:16;;;;;;;8.20;3.40;;;;;;;;;;110313;1276;22104;-79
2023/04/23 08:47:43;;;;;;;10.80;3.60;;;;;;;;;;110534;1274;22135;-80
2023/04/23 08:50:11;;;;;;;10.20;3.20;;;;;;;;;;110440;1259;22761;-78
2023/04/23 08:52:40;;;;;;;9.10;3.30;;;;;;;;;;110327;1276;22583;-78
2023/04/23 08:55:11;;;;;;;9.50;3.20;;;;;;;;;;110636;1276;22840;-78
2023/04/23 08:57:39;;;;;;;9.10;3.20;;;;;;;;;;110433;1276;22839;-78
2023/04/23 09:00:07;;;;;;;9.40;3.40;;;;;;;;;;110495;1258;22128;-78
2023/04/23 09:02:34;;;;;;;8.40;2.90;;;;;;;;;;110535;1276;23167;-79
2023/04/23 09:05:03;;;;;;;7.40;2.90;;;;;;;;;;110556;1276;21997;-78
2023/04/23 09:07:29;;;;;;;8.50;3.40;;;;;;;;;;110551;1276;22098;-80
2023/04/23 09:09:56;;;;;;;8.40;3.60;;;;;;;;;;110421;1260;22015;-78
2023/04/23 09:12:26;;;;;;;8.50;3.00;;;;;;;;;;110458;1276;22251;-79
2023/04/23 09:14:53;;;;;;;9.70;3.10;;;;;;;;;;110460;1276;22091;-77
2023/04/23 09:17:21;;;;;;;9.20;3.40;;;;;;;;;;110634;1276;22151;-77
2023/04/23 09:19:49;;;;;;;8.40;2.80;;;;;;;;;;110422;1259;22196;-76
2023/04/23 09:22:36;;;;;;;9.40;2.50;;;;;;;;;;110355;1276;22172;-78
2023/04/23 09:25:04;;;;;;;9.50;2.60;;;;;;;;;;110367;1276;22273;-78
2023/04/23 09:27:39;;;;;;;7.60;2.50;;;;;;;;;;110230;1276;22322;-77
2023/04/23 09:30:08;;;;;;;6.20;2.50;;;;;;;;;;110496;1258;22112;-78
2023/04/23 09:32:39;;;;;;;8.60;2.40;;;;;;;;;;110497;1272;21991;-78
2023/04/23 09:35:07;;;;;;;7.60;2.70;;;;;;;;;;110427;1277;21998;-79
2023/04/23 09:37:34;;;;;;;9.40;2.60;;;;;;;;;;110268;1277;22105;-78
2023/04/23 09:40:03;;;;;;;12.70;2.70;;;;;;;;;;110421;1262;22084;-77
2023/04/23 09:42:31;;;;;;;8.60;2.70;;;;;;;;;;110238;1277;22140;-77
2023/04/23 09:45:16;;;;;;;5.60;2.20;;;;;;;;;;110348;1277;22198;-77
2023/04/23 09:47:48;;;;;;;7.70;2.10;;;;;;;;;;110245;1277;22892;-80
2023/04/23 09:50:15;;;;;;;7.60;2.40;;;;;;;;;;110255;1254;22152;-77
2023/04/23 09:52:42;;;;;;;8.00;2.40;;;;;;;;;;110182;1276;22097;-79
2023/04/23 09:55:10;;;;;;;8.30;2.70;;;;;;;;;;110293;1277;22838;-78
2023/04/23 09:57:37;;;;;;;8.50;2.10;;;;;;;;;;110477;1277;22082;-78
2023/04/23 10:00:17;;;;;;;6.60;2.50;;;;;;;;;;110455;1278;22087;-78
2023/04/23 10:02:48;;;;;;;7.50;2.50;;;;;;;;;;110505;1266;22116;-77
2023/04/23 10:05:19;;;;;;;7.80;2.50;;;;;;;;;;110432;1277;22848;-78
2023/04/23 10:07:47;;;;;;;6.30;2.40;;;;;;;;;;110354;1274;22288;-78
2023/04/23 10:10:15;;;;;;;9.30;2.70;;;;;;;;;;110243;1277;22829;-78
2023/04/23 10:12:42;;;;;;;7.20;2.40;;;;;;;;;;110666;1270;22118;-78
2023/04/23 10:15:10;;;;;;;7.30;2.30;;;;;;;;;;110300;1277;22104;-78
2023/04/23 10:17:37;;;;;;;8.70;2.50;;;;;;;;;;110307;1277;22078;-78
2023/04/23 10:20:05;;;;;;;12.20;2.50;;;;;;;;;;110431;1277;22884;-77
2023/04/23 10:22:33;;;;;;;6.80;2.30;;;;;;;;;;110602;1256;22144;-78
2023/04/23 10:25:07;;;;;;;7.00;2.40;;;;;;;;;;110375;1277;23054;-78
2023/04/23 10:27:36;;;;;;;6.70;2.30;;;;;;;;;;110234;1277;22646;-76
2023/04/23 10:30:04;;;;;;;12.50;2.50;;;;;;;;;;110231;1277;22084;-79
2023/04/23 10:32:36;;;;;;;9.10;2.40;;;;;;;;;;110302;1257;23021;-79
2023/04/23 10:35:04;;;;;;;6.30;2.40;;;;;;;;;;110353;1277;22153;-77
2023/04/23 10:37:31;;;;;;;11.10;2.40;;;;;;;;;;110359;1277;22129;-78
2023/04/23 10:40:02;;;;;;;9.70;2.40;;;;;;;;;;110193;1278;22854;-78
2023/04/23 10:42:30;;;;;;;7.00;2.50;;;;;;;;;;110336;1259;22739;-78
2023/04/23 10:44:57;;;;;;;11.70;2.50;;;;;;;;;;110314;1278;22764;-79
2023/04/23 10:47:25;;;;;;;6.90;2.40;;;;;;;;;;110370;1278;22192;-78
2023/04/23 10:49:52;;;;;;;9.60;2.70;;;;;;;;;;110376;1278;22107;-80
2023/04/23 10:52:20;;;;;;;12.00;2.80;;;;;;;;;;110172;1257;22101;-80
2023/04/23 10:54:49;;;;;;;7.80;2.60;;;;;;;;;;110452;1277;22056;-80
2023/04/23 10:57:16;;;;;;;6.90;2.40;;;;;;;;;;110373;1277;22115;-79
2023/04/23 10:59:53;;;;;;;7.70;2.30;;;;;;;;;;110451;1277;22044;-83
2023/04/23 11:02:22;;;;;;;8.90;3.20;;;;;;;;;;110357;1260;22131;-80
2023/04/23 11:05:00;;;;;;;8.90;3.00;;;;;;;;;;110208;1278;22121;-81
2023/04/23 11:07:31;;;;;;;7.20;3.20;;;;;;;;;;110178;1273;22053;-80
2023/04/23 11:10:12;;;;;;;7.30;3.00;;;;;;;;;;110291;1278;22061;-78
2023/04/23 11:12:39;;;;;;;9.50;2.70;;;;;;;;;;110379;1259;22118;-79
2023/04/23 11:15:17;;;;;;;9.30;2.70;;;;;;;;;;110378;1278;21984;-82
2023/04/23 11:17:46;;;;;;;8.90;2.90;;;;;;;;;;110445;1278;22882;-79
2023/04/23 11:20:14;;;;;;;7.50;2.90;;;;;;;;;;110417;1278;22110;-78
2023/04/23 11:22:42;;;;;;;8.40;3.00;;;;;;;;;;110548;1254;22163;-77
2023/04/23 11:25:10;;;;;;;8.90;3.00;;;;;;;;;;110362;1278;22901;-79
2023/04/23 11:27:39;;;;;;;7.60;2.90;;;;;;;;;;110371;1278;22104;-78
2023/04/23 11:30:09;;;;;;;9.70;3.00;;;;;;;;;;110362;1278;22107;-78
2023/04/23 11:32:37;;;;;;;8.40;3.10;;;;;;;;;;110437;1254;22871;-78
2023/04/23 11:35:08;;;;;;;9.80;2.70;;;;;;;;;;110294;1278;22088;-80
2023/04/23 11:37:42;;;;;;;8.10;3.00;;;;;;;;;;110298;1278;22171;-79
2023/04/23 11:40:12;;;;;;;8.10;3.10;;;;;;;;;;110291;1278;22127;-78
2023/04/23 11:42:42;;;;;;;7.80;3.00;;;;;;;;;;110294;1256;21991;-79
2023/04/23 11:45:17;;;;;;;7.60;2.80;;;;;;;;;;110144;1278;22122;-76
2023/04/23 11:47:46;;;;;;;8.90;3.30;;;;;;;;;;110122;1278;22137;-80
2023/04/23 11:50:21;;;;;;;6.90;3.10;;;;;;;;;;110138;1278;22281;-79
2023/04/23 11:52:50;;;;;;;8.20;2.90;;;;;;;;;;110111;1255;22011;-78
2023/04/23 11:55:17;;;;;;;8.50;3.00;;;;;;;;;;110121;1278;22846;-80
2023/04/23 11:57:47;;;;;;;7.70;2.90;;;;;;;;;;110323;1278;22161;-81
2023/04/23 12:00:23;;;;;;;6.40;2.70;;;;;;;;;;110306;1278;22105;-80
2023/04/23 12:02:57;;;;;;;8.80;2.70;;;;;;;;;;110290;1278;22374;-80
2023/04/23 12:05:35;;;;;;;8.40;2.90;;;;;;;;;;110220;1260;22872;-81
2023/04/23 12:08:08;;;;;;;7.50;3.30;;;;;;;;;;110225;1278;22149;-81
2023/04/23 12:10:43;;;;;;;6.40;2.80;;;;;;;;;;110139;1278;22389;-81
2023/04/23 12:13:15;;;;;;;8.20;2.70;;;;;;;;;;110197;1278;23032;-79
2023/04/23 12:15:45;;;;;;;7.30;3.00;;;;;;;;;;110171;1263;22360;-82
2023/04/23 12:18:13;;;;;;;7.90;3.10;;;;;;;;;;110393;1278;22063;-80
2023/04/23 12:20:41;;;;;;;8.80;3.40;;;;;;;;;;110324;1278;22397;-81
2023/04/23 12:23:11;;;;;;;7.80;3.50;;;;;;;;;;110324;1278;22082;-80
2023/04/23 12:25:41;;;;;;;9.40;3.50;;;;;;;;;;110356;1257;22182;-81
2023/04/23 12:28:08;;;;;;;7.90;3.60;;;;;;;;;;110205;1278;22117;-81
2023/04/23 12:30:43;;;;;;;9.00;3.40;;;;;;;;;;110194;1278;22126;-80
2023/04/23 12:33:12;;;;;;;8.00;3.80;;;;;;;;;;110095;1279;22123;-80
2023/04/23 12:35:49;;;;;;;9.90;3.20;;;;;;;;;;110261;1263;22126;-80
2023/04/23 12:38:22;;;;;;;8.10;2.90;;;;;;;;;;110182;1279;22203;-80
2023/04/23 12:40:52;;;;;;;7.40;3.00;;;;;;;;;;110060;1279;22142;-81
2023/04/23 12:43:26;;;;;;;7.50;3.10;;;;;;;;;;110120;1279;22053;-80
2023/04/23 12:45:55;;;;;;;8.80;3.00;;;;;;;;;;110239;1257;22141;-80
2023/04/23 12:48:24;;;;;;;8.10;3.50;;;;;;;;;;110108;1279;22115;-81
2023/04/23 12:50:54;;;;;;;8.50;3.40;;;;;;;;;;110063;1279;22131;-81
2023/04/23 12:53:23;;;;;;;9.90;3.10;;;;;;;;;;110173;1279;22806;-79
2023/04/23 12:55:53;;;;;;;8.40;3.40;;;;;;;;;;110148;1263;22774;-80
2023/04/23 12:58:22;;;;;;;7.80;2.90;;;;;;;;;;110165;1279;22125;-80
2023/04/23 13:00:51;;;;;;;9.60;3.60;;;;;;;;;;110102;1279;22072;-79
2023/04/23 13:03:20;;;;;;;8.90;3.50;;;;;;;;;;110263;1279;22115;-80
2023/04/23 13:05:49;;;;;;;7.50;3.60;;;;;;;;;;110412;1257;22952;-80
2023/04/23 13:08:18;;;;;;;9.90;4.20;;;;;;;;;;110014;1279;22217;-80
2023/04/23 13:10:48;;;;;;;10.20;4.70;;;;;;;;;;110104;1279;22065;-81
2023/04/23 13:13:18;;;;;;;9.60;4.40;;;;;;;;;;110108;1279;22110;-81
2023/04/23 13:15:48;;;;;;;9.50;4.50;;;;;;;;;;110317;1260;22128;-81
2023/04/23 13:18:16;;;;;;;11.10;4.50;;;;;;;;;;110158;1279;22212;-81
2023/04/23 13:20:47;;;;;;;11.50;4.50;;;;;;;;;;110082;1279;22833;-81
2023/04/23 13:23:17;;;;;;;10.70;4.90;;;;;;;;;;110147;1279;21997;-80
2023/04/23 13:25:47;;;;;;;11.20;5.00;;;;;;;;;;110382;1260;22812;-81
2023/04/23 13:28:16;;;;;;;12.30;4.60;;;;;;;;;;110180;1279;22087;-80
2023/04/23 13:37:43;;;;;;;8.20;3.40;;;;;;;;;;103921;1292;545485;-83
2023/04/23 13:40:10;;;;;;;9.00;3.90;;;;;;;;;;106126;1287;24114;-89
2023/04/23 13:42:37;;;;;;;8.10;3.40;;;;;;;;;;106751;1269;22555;-79
2023/04/23 13:45:05;;;;;;;9.00;3.80;;;;;;;;;;106741;1280;24251;-85
2023/04/23 13:47:33;;;;;;;9.60;3.90;;;;;;;;;;106597;1265;22529;-86
2023/04/23 13:50:05;;;;;;;10.50;4.10;;;;;;;;;;106614;1280;23932;-82
2023/04/23 13:52:32;;;;;;;11.70;4.40;;;;;;;;;;104766;1278;2696424;-84
2023/04/23 13:55:01;;;;;;;8.90;4.40;;;;;;;;;;106800;1278;22611;-81
2023/04/23 13:57:28;;;;;;;8.60;4.00;;;;;;;;;;106647;1263;24359;-83
2023/04/23 13:59:55;;;;;;;8.10;3.30;;;;;;;;;;106608;1279;24434;-81
2023/04/23 14:02:22;;;;;;;8.60;3.80;;;;;;;;;;106651;1279;24227;-78
2023/04/23 14:04:49;;;;;;;10.80;4.00;;;;;;;;;;106600;1279;22506;-83
2023/04/23 14:07:16;;;;;;;8.50;3.30;;;;;;;;;;106693;1278;25857;-79
2023/04/23 14:09:45;;;;;;;9.20;3.80;;;;;;;;;;106815;1278;23269;-85
2023/04/23 14:12:12;;;;;;;9.20;3.70;;;;;;;;;;106790;1278;22525;-85
2023/04/23 14:14:38;;;;;;;7.70;3.40;;;;;;;;;;106800;1278;22539;-79
2023/04/23 14:17:05;;;;;;;7.60;3.70;;;;;;;;;;106825;1278;22623;-79
2023/04/23 14:19:34;;;;;;;9.80;3.90;;;;;;;;;;106604;1264;24213;-85
2023/04/23 14:22:02;;;;;;;10.90;6.50;;;;;;;;;;106679;1278;24331;-81
2023/04/23 14:24:32;;;;;;;11.90;5.00;;;;;;;;;;106824;1278;22526;-79
2023/04/23 14:27:00;;;;;;;9.10;3.90;;;;;;;;;;106851;1256;24315;-81
2023/04/23 14:30:00;;;;;;;7.70;3.60;;;;;;;;;;106588;1262;25468;-81
2023/04/23 14:32:26;;;;;;;8.60;3.50;;;;;;;;;;106387;1284;22773;-83
2023/04/23 14:34:53;;;;;;;9.50;4.10;;;;;;;;;;106338;1284;22537;-82
2023/04/23 14:37:20;;;;;;;10.90;5.20;;;;;;;;;;106418;1284;24281;-80
2023/04/23 14:39:47;;;;;;;10.70;5.20;;;;;;;;;;106363;1274;22540;-79
2023/04/23 14:42:14;;;;;;;12.00;6.10;;;;;;;;;;106380;1283;24197;-85
2023/04/23 14:44:43;;;;;;;8.90;4.60;;;;;;;;;;106321;1283;24225;-83
2023/04/23 14:47:10;;;;;;;10.80;4.00;;;;;;;;;;106402;1283;22654;-81
2023/04/23 14:49:39;;;;;;;9.50;4.80;;;;;;;;;;106387;1267;26586;-79
2023/04/23 14:52:06;;;;;;;9.50;4.20;;;;;;;;;;106363;1284;22550;-84
2023/04/23 14:54:35;;;;;;;8.10;4.10;;;;;;;;;;106390;1283;22492;-86
2023/04/23 14:57:01;;;;;;;10.10;4.00;;;;;;;;;;106355;1284;22533;-85